Allen, Alabama
Current Conditions -  °F | °C
As of 11:53 PM on Friday 31 Oct 2014 (Local Time) from KGZH Reporting Station
Scattered Clouds Scattered Clouds  
Wind Chill: 54°   Ceiling: Unl
Heat Index: 54°   Visibility: 10mi
Dew Point: 38°   Wind: 14mph
Humidity: 55%   Direction: 350°N
Pressure: 30.12"   Gusts: 23mph
Location:  31.6°N, 87.71°W
Report Text: KGZH 010453Z AUTO 35012G20KT 10SM FEW040 SCT047 12/03 A3012 RMK AO2 SLP196 T01220033
Loading
Personal Weather Stations






























Interactive Weather Map
Tropical Storm Tracking
New forecast layout! Learn more

10-Day Weather Forecast

Advertisements
Track Severe Weather on mobile